createdAt,value
2023-12-27T00:00:03.449Z,62.88
2023-12-27T00:03:11.866Z,63.49
2023-12-27T00:06:11.066Z,63.50
2023-12-27T00:09:11.202Z,63.74
2023-12-27T00:12:16.868Z,64.03
2023-12-27T00:15:23.220Z,64.77
2023-12-27T00:18:28.821Z,64.21
2023-12-27T00:21:34.849Z,63.49
2023-12-27T00:24:41.229Z,64.04
2023-12-27T00:27:47.694Z,63.86
2023-12-27T00:30:56.016Z,65.32
2023-12-27T00:34:03.799Z,65.12
2023-12-27T00:37:10.123Z,65.87
2023-12-27T00:40:16.433Z,64.53
2023-12-27T00:43:21.600Z,65.28
2023-12-27T00:46:27.830Z,66.22
2023-12-27T00:49:33.331Z,66.76
2023-12-27T00:52:40.519Z,66.36
2023-12-27T00:55:47.280Z,65.94
2023-12-27T00:58:54.214Z,65.72
2023-12-27T01:02:04.638Z,65.40
2023-12-27T01:05:11.974Z,65.33
2023-12-27T01:08:18.863Z,65.77
2023-12-27T01:11:24.770Z,65.34
2023-12-27T01:14:31.772Z,65.22
2023-12-27T01:17:37.152Z,65.46
2023-12-27T01:20:42.964Z,64.92
2023-12-27T01:23:48.308Z,64.19
2023-12-27T01:26:54.516Z,63.76
2023-12-27T01:30:02.575Z,63.59
2023-12-27T01:33:10.326Z,62.89
2023-12-27T01:36:23.019Z,64.28
2023-12-27T01:39:28.392Z,63.99
2023-12-27T01:42:33.720Z,64.59
2023-12-27T01:45:40.213Z,64.92
2023-12-27T01:48:46.774Z,65.56
2023-12-27T01:51:53.858Z,65.32
2023-12-27T01:54:58.980Z,67.30
2023-12-27T01:58:04.083Z,66.27
2023-12-27T02:01:10.850Z,64.52
2023-12-27T02:04:16.280Z,65.32
2023-12-27T02:07:28.572Z,65.73
2023-12-27T02:10:29.856Z,66.28
2023-12-27T02:13:36.813Z,66.27
2023-12-27T02:16:42.439Z,65.12
2023-12-27T02:19:49.124Z,65.05
2023-12-27T02:22:55.714Z,64.38
2023-12-27T02:26:00.836Z,64.12
2023-12-27T02:29:05.995Z,66.06
2023-12-27T02:32:12.200Z,65.93
2023-12-27T02:35:17.353Z,65.42
2023-12-27T02:38:24.328Z,65.72
2023-12-27T02:41:30.731Z,66.35
2023-12-27T02:44:37.368Z,66.35
2023-12-27T02:47:41.942Z,65.94
2023-12-27T02:50:47.454Z,66.53
2023-12-27T02:53:54.043Z,66.88
2023-12-27T02:57:00.157Z,66.39
2023-12-27T03:00:05.684Z,66.09
2023-12-27T03:03:12.695Z,66.33
2023-12-27T03:06:18.327Z,66.60
2023-12-27T03:09:24.648Z,66.28
2023-12-27T03:12:24.749Z,65.41
2023-12-27T03:15:24.524Z,65.57
2023-12-27T03:18:31.267Z,65.49
2023-12-27T03:21:38.212Z,65.57
2023-12-27T03:24:44.705Z,66.08
2023-12-27T03:27:50.725Z,66.04
2023-12-27T03:30:57.496Z,66.35
2023-12-27T03:34:04.644Z,66.65
2023-12-27T03:37:11.213Z,65.72
2023-12-27T03:40:18.126Z,66.06
2023-12-27T03:43:24.173Z,65.72
2023-12-27T03:46:30.194Z,65.59
2023-12-27T03:49:36.788Z,65.25
2023-12-27T03:52:42.866Z,65.90
2023-12-27T03:55:48.533Z,66.19
2023-12-27T03:58:55.021Z,66.11
2023-12-27T04:01:55.603Z,65.35
2023-12-27T04:04:48.893Z,65.57
2023-12-27T04:07:56.053Z,65.15
2023-12-27T04:11:01.857Z,65.09
2023-12-27T04:14:08.595Z,65.08
2023-12-27T04:17:14.982Z,64.82
2023-12-27T04:20:21.415Z,65.03
2023-12-27T04:23:27.100Z,65.60
2023-12-27T04:26:32.479Z,66.28
2023-12-27T04:29:38.643Z,66.31
2023-12-27T04:32:46.462Z,66.05
2023-12-27T04:35:52.980Z,66.50
2023-12-27T04:38:58.548Z,66.90
2023-12-27T04:42:05.483Z,66.83
2023-12-27T04:45:12.720Z,67.53
2023-12-27T04:48:18.826Z,66.88
2023-12-27T04:51:25.415Z,67.46
2023-12-27T04:54:31.970Z,67.13
2023-12-27T04:57:39.426Z,67.17
2023-12-27T05:00:45.425Z,66.98
2023-12-27T05:03:52.244Z,67.43
2023-12-27T05:06:58.460Z,67.79
2023-12-27T05:10:04.475Z,67.91
2023-12-27T05:13:10.571Z,68.14
2023-12-27T05:16:16.259Z,67.91
2023-12-27T05:19:23.291Z,67.64
2023-12-27T05:22:28.694Z,67.19
2023-12-27T05:25:34.491Z,66.43
2023-12-27T05:28:39.882Z,67.42
2023-12-27T05:31:45.977Z,67.03
2023-12-27T05:34:53.680Z,67.33
2023-12-27T05:38:00.073Z,66.25
2023-12-27T05:41:06.368Z,66.10
2023-12-27T05:44:12.921Z,66.42
2023-12-27T05:47:20.030Z,66.42
2023-12-27T05:50:25.871Z,66.24
2023-12-27T05:53:31.648Z,65.03
2023-12-27T05:56:38.447Z,65.02
2023-12-27T05:59:44.102Z,65.15
2023-12-27T06:02:49.695Z,64.58
2023-12-27T06:05:55.393Z,64.65
2023-12-27T06:09:01.826Z,65.37
2023-12-27T06:12:07.223Z,65.11
2023-12-27T06:15:15.407Z,64.96
2023-12-27T06:18:20.793Z,64.95
2023-12-27T06:21:27.430Z,64.56
2023-12-27T06:24:34.850Z,64.56
2023-12-27T06:27:42.082Z,65.05
2023-12-27T06:30:49.336Z,65.50
2023-12-27T06:33:56.378Z,65.46
2023-12-27T06:37:04.974Z,65.62
2023-12-27T06:40:11.051Z,65.57
2023-12-27T06:43:16.979Z,65.49
2023-12-27T06:46:23.818Z,65.64
2023-12-27T06:49:29.798Z,65.08
2023-12-27T06:52:35.791Z,65.49
2023-12-27T06:55:41.571Z,65.40
2023-12-27T06:58:47.845Z,64.34
2023-12-27T07:01:53.939Z,64.33
2023-12-27T07:04:59.053Z,64.22
2023-12-27T07:08:05.059Z,64.86
2023-12-27T07:11:11.120Z,64.43
2023-12-27T07:14:16.576Z,64.45
2023-12-27T07:17:22.850Z,63.39
2023-12-27T07:20:29.613Z,62.64
2023-12-27T07:23:36.332Z,62.86
2023-12-27T07:26:42.622Z,62.84
2023-12-27T07:29:49.966Z,63.45
2023-12-27T07:32:57.094Z,62.77
2023-12-27T07:36:04.763Z,62.49
2023-12-27T07:39:13.325Z,62.16
2023-12-27T07:42:19.217Z,61.81
2023-12-27T07:45:28.909Z,61.21
2023-12-27T07:48:34.616Z,61.18
2023-12-27T07:51:44.012Z,61.16
2023-12-27T07:54:52.931Z,61.58
2023-12-27T07:57:59.253Z,62.10
2023-12-27T08:01:06.434Z,61.07
2023-12-27T08:04:13.232Z,60.44
2023-12-27T08:07:13.264Z,60.97
2023-12-27T08:10:09.960Z,60.64
2023-12-27T09:17:40.965Z,52.04
2023-12-27T09:20:47.088Z,50.66
2023-12-27T09:23:53.885Z,50.37
2023-12-27T09:26:59.287Z,50.06
2023-12-27T09:30:06.183Z,50.63
2023-12-27T09:33:15.563Z,51.15
2023-12-27T09:36:21.684Z,50.79
2023-12-27T09:39:27.734Z,50.50
2023-12-27T09:42:51.056Z,49.85
2023-12-27T09:45:58.788Z,49.02
2023-12-27T09:49:16.821Z,49.57
2023-12-27T09:52:23.568Z,49.02
2023-12-27T09:55:39.512Z,48.63
2023-12-27T09:58:54.862Z,48.46
2023-12-27T10:02:10.147Z,48.46
2023-12-27T10:05:24.497Z,48.42
2023-12-27T10:08:33.152Z,48.08
2023-12-27T10:11:40.006Z,47.23
2023-12-27T10:14:46.905Z,48.47
2023-12-27T10:17:52.669Z,48.36
2023-12-27T10:21:00.382Z,47.97
2023-12-27T10:24:07.745Z,48.08
2023-12-27T10:27:17.901Z,48.44
2023-12-27T10:30:24.413Z,49.03
2023-12-27T10:33:32.004Z,48.75
2023-12-27T10:36:39.620Z,48.79
2023-12-27T10:39:46.708Z,48.20
2023-12-27T10:42:54.517Z,47.50
2023-12-27T10:46:00.561Z,47.07
2023-12-27T10:49:08.886Z,45.13
2023-12-27T10:52:15.178Z,45.68
2023-12-27T10:55:21.425Z,46.37
2023-12-27T10:58:36.102Z,46.99
2023-12-27T11:01:53.111Z,47.27
2023-12-27T11:05:02.426Z,47.53
2023-12-27T11:08:16.743Z,47.40
2023-12-27T11:11:24.476Z,46.77
2023-12-27T11:14:32.894Z,46.56
2023-12-27T11:17:38.064Z,45.63
2023-12-27T11:20:45.914Z,45.92
2023-12-27T11:23:52.905Z,46.33
2023-12-27T11:27:03.363Z,46.07
2023-12-27T11:30:09.766Z,46.29
2023-12-27T11:33:16.392Z,45.98
2023-12-27T11:36:25.252Z,46.12
2023-12-27T11:39:37.089Z,47.10
2023-12-27T11:42:43.588Z,46.93
2023-12-27T11:46:15.126Z,47.81
2023-12-27T11:49:20.757Z,47.19
2023-12-27T11:52:29.211Z,47.52
2023-12-27T11:55:36.963Z,47.93
2023-12-27T11:58:49.937Z,47.73
2023-12-27T12:01:57.460Z,46.75
2023-12-27T12:05:14.049Z,46.44
2023-12-27T12:08:43.437Z,45.91
2023-12-27T12:11:50.188Z,46.96
2023-12-27T12:14:57.639Z,46.38
2023-12-27T12:18:06.033Z,46.47
2023-12-27T12:21:11.979Z,46.34
2023-12-27T12:24:26.883Z,46.66
2023-12-27T14:19:54.840Z,66.68
2023-12-27T14:23:22.829Z,67.28
2023-12-27T14:26:33.539Z,67.58
2023-12-27T14:29:41.153Z,67.73
2023-12-27T14:32:47.806Z,68.45
2023-12-27T14:35:56.798Z,71.24
2023-12-27T14:39:05.791Z,70.62
2023-12-27T14:42:14.000Z,70.07
2023-12-27T14:45:25.715Z,70.53
2023-12-27T14:48:38.970Z,70.64
2023-12-27T14:51:46.064Z,70.32
2023-12-27T14:54:54.848Z,69.53
2023-12-27T14:58:21.764Z,69.23
2023-12-27T15:01:37.020Z,69.60
2023-12-27T15:04:48.039Z,69.25
2023-12-27T15:08:06.871Z,68.36
2023-12-27T15:11:33.554Z,69.02
2023-12-27T15:14:47.150Z,69.62
2023-12-27T15:18:02.467Z,69.86
2023-12-27T15:21:11.850Z,69.88
2023-12-27T15:24:25.269Z,69.66
2023-12-27T15:27:34.731Z,68.76
2023-12-27T15:30:57.835Z,67.40
2023-12-27T15:34:14.328Z,68.40
2023-12-27T15:37:28.587Z,71.87
2023-12-27T15:40:45.918Z,73.69
2023-12-27T15:43:58.275Z,68.43
2023-12-27T15:47:08.882Z,68.62
2023-12-27T15:50:21.806Z,67.40
2023-12-27T15:53:28.830Z,66.66
2023-12-27T15:56:50.432Z,66.27
2023-12-27T15:59:58.478Z,65.55
2023-12-27T16:03:05.129Z,64.65
2023-12-27T16:06:05.243Z,65.32
2023-12-27T16:09:15.636Z,64.41
2023-12-27T16:12:22.885Z,63.40
2023-12-27T16:15:33.958Z,64.01
2023-12-27T16:18:39.831Z,63.84
2023-12-27T16:21:46.593Z,63.82
2023-12-27T16:24:54.025Z,64.66
2023-12-27T16:28:03.361Z,65.45
2023-12-27T16:31:10.398Z,66.54
2023-12-27T16:34:18.025Z,66.32
2023-12-27T16:37:25.093Z,66.58
2023-12-27T16:40:31.154Z,66.35
2023-12-27T16:43:44.702Z,66.62
2023-12-27T16:46:52.348Z,65.72
2023-12-27T16:50:01.460Z,64.75
2023-12-27T16:53:07.099Z,64.33
2023-12-27T16:56:13.963Z,63.57
2023-12-27T16:59:20.507Z,63.74
2023-12-27T17:02:26.358Z,63.74
2023-12-27T17:05:32.071Z,63.69
2023-12-27T17:08:37.804Z,62.93
2023-12-27T17:11:45.856Z,62.97
2023-12-27T17:14:54.958Z,62.48
2023-12-27T17:18:01.493Z,62.28
2023-12-27T17:21:08.393Z,62.12
2023-12-27T17:24:15.158Z,60.68
2023-12-27T17:27:25.095Z,61.27
2023-12-27T17:30:32.960Z,60.60
2023-12-27T17:33:39.406Z,61.26
2023-12-27T17:36:46.025Z,61.43
2023-12-27T17:39:52.617Z,60.02
2023-12-27T17:43:00.125Z,59.15
2023-12-27T17:46:06.171Z,58.52
2023-12-27T17:49:12.544Z,57.57
2023-12-27T17:52:18.664Z,56.70
2023-12-27T17:55:25.011Z,57.23
2023-12-27T17:58:33.810Z,57.12
2023-12-27T18:01:39.530Z,56.97
2023-12-27T18:04:47.946Z,56.55
2023-12-27T18:07:55.527Z,55.44
2023-12-27T18:11:01.235Z,55.38
2023-12-27T18:14:08.168Z,55.23
2023-12-27T18:17:14.322Z,54.34
2023-12-27T18:20:23.345Z,53.98
2023-12-27T18:23:31.400Z,53.70
2023-12-27T18:26:42.142Z,52.96
2023-12-27T18:29:47.657Z,52.49
2023-12-27T18:32:54.120Z,52.11
2023-12-27T18:36:02.530Z,52.04
2023-12-27T18:39:09.344Z,52.72
2023-12-27T18:42:15.055Z,52.89
2023-12-27T18:45:22.726Z,52.89
2023-12-27T18:48:30.720Z,52.36
2023-12-27T18:51:37.218Z,51.33
2023-12-27T18:54:44.209Z,50.51
2023-12-27T18:57:50.955Z,51.78
2023-12-27T19:00:58.187Z,51.28
2023-12-27T19:04:05.100Z,50.58
2023-12-27T19:07:10.549Z,52.10
2023-12-27T19:10:17.961Z,52.31
2023-12-27T19:13:25.695Z,52.41
2023-12-27T19:16:34.362Z,52.10
2023-12-27T19:19:40.492Z,51.28
2023-12-27T19:22:49.397Z,53.17
2023-12-27T19:25:55.946Z,52.88
2023-12-27T19:29:04.490Z,52.44
2023-12-27T19:32:12.078Z,52.56
2023-12-27T19:35:22.344Z,53.15
2023-12-27T19:38:28.950Z,52.49
2023-12-27T19:41:35.928Z,51.88
2023-12-27T19:44:42.875Z,52.89
2023-12-27T19:47:48.584Z,51.81
2023-12-27T19:50:54.892Z,51.96
2023-12-27T19:54:01.048Z,52.80
2023-12-27T19:57:07.337Z,52.10
2023-12-27T20:00:13.738Z,52.39
2023-12-27T20:03:20.266Z,51.52
2023-12-27T20:06:27.130Z,52.23
2023-12-27T20:09:33.556Z,53.10
2023-12-27T20:12:39.451Z,54.86
2023-12-27T20:15:49.209Z,54.87
2023-12-27T20:18:54.683Z,54.47
2023-12-27T20:22:01.839Z,56.50
2023-12-27T20:25:08.790Z,56.63
2023-12-27T20:28:14.984Z,55.54
2023-12-27T20:31:20.509Z,55.29
2023-12-27T20:34:27.386Z,55.58
2023-12-27T20:37:34.667Z,57.88
2023-12-27T20:40:41.281Z,56.96
2023-12-27T20:43:48.494Z,57.21
2023-12-27T20:46:55.321Z,56.67
2023-12-27T20:50:01.836Z,55.98
2023-12-27T20:53:10.155Z,56.58
2023-12-27T20:56:17.467Z,59.39
2023-12-27T20:59:25.883Z,60.51
2023-12-27T21:02:33.913Z,58.10
2023-12-27T21:05:41.235Z,58.88
2023-12-27T21:08:48.434Z,57.37
2023-12-27T21:11:56.028Z,57.21
2023-12-27T21:15:04.337Z,56.02
2023-12-27T21:18:11.457Z,57.85
2023-12-27T21:21:18.502Z,58.31
2023-12-27T21:24:25.413Z,59.65
2023-12-27T21:27:31.923Z,59.12
2023-12-27T21:30:37.964Z,57.20
2023-12-27T21:33:44.564Z,54.86
2023-12-27T21:36:50.826Z,54.08
2023-12-27T21:39:57.285Z,52.97
2023-12-27T21:43:04.617Z,52.12
2023-12-27T21:46:12.709Z,52.02
2023-12-27T21:49:18.303Z,51.88
2023-12-27T21:52:25.152Z,52.33
2023-12-27T21:55:30.661Z,52.85
2023-12-27T21:58:36.648Z,51.49
2023-12-27T22:01:42.907Z,51.07
2023-12-27T22:04:52.110Z,51.47
2023-12-27T22:08:05.209Z,51.28
2023-12-27T22:11:06.258Z,51.12
2023-12-27T22:14:13.774Z,50.00
2023-12-27T22:17:21.369Z,50.10
2023-12-27T22:20:29.345Z,50.01
2023-12-27T22:23:35.264Z,50.10
2023-12-27T22:26:41.681Z,50.00
2023-12-27T22:29:48.384Z,50.29
2023-12-27T22:32:56.121Z,50.11
2023-12-27T22:36:02.464Z,49.77
2023-12-27T22:39:08.407Z,50.53
2023-12-27T22:42:14.278Z,50.76
2023-12-27T22:45:22.357Z,50.48
2023-12-27T22:48:29.807Z,51.45
2023-12-27T22:51:36.581Z,51.11
2023-12-27T22:54:42.860Z,51.21
2023-12-27T22:57:49.478Z,52.13
2023-12-27T23:00:57.226Z,51.84
2023-12-27T23:04:03.950Z,51.81
2023-12-27T23:07:10.607Z,52.00
2023-12-27T23:10:16.902Z,51.67
2023-12-27T23:13:23.830Z,51.75
2023-12-27T23:16:30.699Z,51.93
2023-12-27T23:19:37.112Z,51.42
2023-12-27T23:22:43.854Z,51.47
2023-12-27T23:25:51.985Z,51.93
2023-12-27T23:28:58.593Z,51.87
2023-12-27T23:32:05.571Z,51.98
2023-12-27T23:35:11.216Z,52.75
2023-12-27T23:38:17.888Z,52.33
2023-12-27T23:41:23.750Z,51.90
2023-12-27T23:44:30.387Z,52.18
2023-12-27T23:47:35.935Z,53.13
2023-12-27T23:50:42.437Z,53.88
2023-12-27T23:53:49.501Z,53.04
2023-12-27T23:56:55.954Z,52.89
